sensor_id;sensor_type;location;lat;lon;timestamp;P1;durP1;ratioP1;P2;durP2;ratioP2
6031;SDS011;3044;43.232;27.972;2023-02-28T00:01:53;6.83;;;6.23;;
6031;SDS011;3044;43.232;27.972;2023-02-28T00:04:20;6.60;;;5.93;;
6031;SDS011;3044;43.232;27.972;2023-02-28T00:06:47;6.90;;;6.30;;
6031;SDS011;3044;43.232;27.972;2023-02-28T00:09:15;6.63;;;6.13;;
6031;SDS011;3044;43.232;27.972;2023-02-28T00:11:42;6.93;;;6.33;;
6031;SDS011;3044;43.232;27.972;2023-02-28T00:14:10;7.77;;;6.90;;
6031;SDS011;3044;43.232;27.972;2023-02-28T00:16:38;7.40;;;6.70;;
6031;SDS011;3044;43.232;27.972;2023-02-28T00:19:05;7.23;;;6.60;;
6031;SDS011;3044;43.232;27.972;2023-02-28T00:21:33;8.20;;;7.17;;
6031;SDS011;3044;43.232;27.972;2023-02-28T00:24:00;6.50;;;6.00;;
6031;SDS011;3044;43.232;27.972;2023-02-28T00:26:28;6.67;;;6.17;;
6031;SDS011;3044;43.232;27.972;2023-02-28T00:28:55;7.07;;;6.50;;
6031;SDS011;3044;43.232;27.972;2023-02-28T00:31:23;6.90;;;6.30;;
6031;SDS011;3044;43.232;27.972;2023-02-28T00:33:51;7.17;;;6.20;;
6031;SDS011;3044;43.232;27.972;2023-02-28T00:36:18;6.57;;;5.97;;
6031;SDS011;3044;43.232;27.972;2023-02-28T00:38:45;6.27;;;5.73;;
6031;SDS011;3044;43.232;27.972;2023-02-28T00:41:13;6.80;;;6.20;;
6031;SDS011;3044;43.232;27.972;2023-02-28T00:43:40;6.87;;;5.50;;
6031;SDS011;3044;43.232;27.972;2023-02-28T00:46:08;5.80;;;5.30;;
6031;SDS011;3044;43.232;27.972;2023-02-28T00:48:37;6.17;;;5.67;;
6031;SDS011;3044;43.232;27.972;2023-02-28T00:51:04;7.30;;;6.53;;
6031;SDS011;3044;43.232;27.972;2023-02-28T00:53:32;6.70;;;6.10;;
6031;SDS011;3044;43.232;27.972;2023-02-28T00:55:59;6.70;;;6.03;;
6031;SDS011;3044;43.232;27.972;2023-02-28T00:58:26;6.93;;;6.20;;
6031;SDS011;3044;43.232;27.972;2023-02-28T01:00:54;6.73;;;6.17;;
6031;SDS011;3044;43.232;27.972;2023-02-28T01:03:21;7.50;;;6.87;;
6031;SDS011;3044;43.232;27.972;2023-02-28T01:05:50;6.23;;;5.70;;
6031;SDS011;3044;43.232;27.972;2023-02-28T01:08:18;7.13;;;6.30;;
6031;SDS011;3044;43.232;27.972;2023-02-28T01:10:45;6.23;;;5.73;;
6031;SDS011;3044;43.232;27.972;2023-02-28T01:13:13;7.20;;;5.93;;
6031;SDS011;3044;43.232;27.972;2023-02-28T01:15:41;8.43;;;7.57;;
6031;SDS011;3044;43.232;27.972;2023-02-28T01:18:12;7.70;;;6.40;;
6031;SDS011;3044;43.232;27.972;2023-02-28T01:20:39;7.40;;;6.70;;
6031;SDS011;3044;43.232;27.972;2023-02-28T01:23:08;6.10;;;5.50;;
6031;SDS011;3044;43.232;27.972;2023-02-28T01:25:35;5.97;;;5.57;;
6031;SDS011;3044;43.232;27.972;2023-02-28T01:28:02;7.90;;;7.10;;
6031;SDS011;3044;43.232;27.972;2023-02-28T01:30:30;7.43;;;6.83;;
6031;SDS011;3044;43.232;27.972;2023-02-28T01:32:59;7.07;;;6.27;;
6031;SDS011;3044;43.232;27.972;2023-02-28T01:35:26;8.70;;;7.80;;
6031;SDS011;3044;43.232;27.972;2023-02-28T01:37:53;7.00;;;6.33;;
6031;SDS011;3044;43.232;27.972;2023-02-28T01:40:22;7.63;;;6.80;;
6031;SDS011;3044;43.232;27.972;2023-02-28T01:42:49;8.50;;;7.70;;
6031;SDS011;3044;43.232;27.972;2023-02-28T01:45:18;8.47;;;7.67;;
6031;SDS011;3044;43.232;27.972;2023-02-28T01:47:50;7.77;;;7.10;;
6031;SDS011;3044;43.232;27.972;2023-02-28T01:50:21;8.80;;;8.00;;
6031;SDS011;3044;43.232;27.972;2023-02-28T01:52:51;7.80;;;7.10;;
6031;SDS011;3044;43.232;27.972;2023-02-28T01:55:23;9.20;;;8.30;;
6031;SDS011;3044;43.232;27.972;2023-02-28T01:57:55;8.10;;;7.33;;
6031;SDS011;3044;43.232;27.972;2023-02-28T02:00:25;8.90;;;7.30;;
6031;SDS011;3044;43.232;27.972;2023-02-28T02:02:54;6.40;;;5.90;;
6031;SDS011;3044;43.232;27.972;2023-02-28T02:05:24;6.10;;;5.60;;
6031;SDS011;3044;43.232;27.972;2023-02-28T02:07:54;5.63;;;5.13;;
6031;SDS011;3044;43.232;27.972;2023-02-28T02:10:27;5.80;;;5.30;;
6031;SDS011;3044;43.232;27.972;2023-02-28T02:13:02;5.53;;;5.13;;
6031;SDS011;3044;43.232;27.972;2023-02-28T02:15:38;4.50;;;4.20;;
6031;SDS011;3044;43.232;27.972;2023-02-28T02:18:13;5.60;;;5.10;;
6031;SDS011;3044;43.232;27.972;2023-02-28T02:20:54;5.03;;;4.70;;
6031;SDS011;3044;43.232;27.972;2023-02-28T02:24:15;5.27;;;4.87;;
6031;SDS011;3044;43.232;27.972;2023-02-28T02:27:17;4.80;;;4.40;;
6031;SDS011;3044;43.232;27.972;2023-02-28T02:29:59;5.43;;;4.93;;
6031;SDS011;3044;43.232;27.972;2023-02-28T02:32:45;4.97;;;4.47;;
6031;SDS011;3044;43.232;27.972;2023-02-28T02:35:43;4.33;;;4.03;;
6031;SDS011;3044;43.232;27.972;2023-02-28T02:38:17;5.97;;;5.37;;
6031;SDS011;3044;43.232;27.972;2023-02-28T02:40:50;4.40;;;4.10;;
6031;SDS011;3044;43.232;27.972;2023-02-28T02:43:25;5.53;;;5.13;;
6031;SDS011;3044;43.232;27.972;2023-02-28T02:45:56;4.63;;;4.30;;
6031;SDS011;3044;43.232;27.972;2023-02-28T02:48:29;4.70;;;4.30;;
6031;SDS011;3044;43.232;27.972;2023-02-28T02:51:02;5.53;;;5.03;;
6031;SDS011;3044;43.232;27.972;2023-02-28T02:53:38;4.50;;;4.20;;
6031;SDS011;3044;43.232;27.972;2023-02-28T02:56:08;4.60;;;4.30;;
6031;SDS011;3044;43.232;27.972;2023-02-28T02:58:38;4.70;;;4.40;;
6031;SDS011;3044;43.232;27.972;2023-02-28T03:01:10;4.63;;;4.33;;
6031;SDS011;3044;43.232;27.972;2023-02-28T03:03:40;5.37;;;4.97;;
6031;SDS011;3044;43.232;27.972;2023-02-28T03:06:10;4.63;;;4.33;;
6031;SDS011;3044;43.232;27.972;2023-02-28T03:08:37;5.87;;;5.43;;
6031;SDS011;3044;43.232;27.972;2023-02-28T03:11:05;4.83;;;4.47;;
6031;SDS011;3044;43.232;27.972;2023-02-28T03:13:42;4.50;;;4.10;;
6031;SDS011;3044;43.232;27.972;2023-02-28T03:19:16;5.87;;;5.47;;
6031;SDS011;3044;43.232;27.972;2023-02-28T03:21:59;7.03;;;5.97;;
6031;SDS011;3044;43.232;27.972;2023-02-28T03:24:45;5.93;;;5.40;;
6031;SDS011;3044;43.232;27.972;2023-02-28T03:27:22;7.63;;;6.03;;
6031;SDS011;3044;43.232;27.972;2023-02-28T03:29:57;5.70;;;5.30;;
6031;SDS011;3044;43.232;27.972;2023-02-28T03:32:29;6.40;;;5.80;;
6031;SDS011;3044;43.232;27.972;2023-02-28T03:35:05;6.40;;;5.90;;
6031;SDS011;3044;43.232;27.972;2023-02-28T03:37:38;7.57;;;6.80;;
6031;SDS011;3044;43.232;27.972;2023-02-28T03:40:08;6.07;;;5.63;;
6031;SDS011;3044;43.232;27.972;2023-02-28T03:42:39;7.50;;;6.63;;
6031;SDS011;3044;43.232;27.972;2023-02-28T03:45:11;8.70;;;7.87;;
6031;SDS011;3044;43.232;27.972;2023-02-28T03:47:42;9.27;;;7.57;;
6031;SDS011;3044;43.232;27.972;2023-02-28T03:50:16;6.97;;;6.37;;
6031;SDS011;3044;43.232;27.972;2023-02-28T03:52:49;8.40;;;7.60;;
6031;SDS011;3044;43.232;27.972;2023-02-28T03:55:19;8.00;;;7.30;;
6031;SDS011;3044;43.232;27.972;2023-02-28T03:57:50;9.07;;;8.27;;
6031;SDS011;3044;43.232;27.972;2023-02-28T04:00:26;7.77;;;6.97;;
6031;SDS011;3044;43.232;27.972;2023-02-28T04:02:56;8.63;;;7.80;;
6031;SDS011;3044;43.232;27.972;2023-02-28T04:05:23;10.20;;;7.20;;
6031;SDS011;3044;43.232;27.972;2023-02-28T04:07:52;11.30;;;7.60;;
6031;SDS011;3044;43.232;27.972;2023-02-28T04:10:20;7.93;;;7.13;;
6031;SDS011;3044;43.232;27.972;2023-02-28T04:12:48;7.67;;;6.97;;
6031;SDS011;3044;43.232;27.972;2023-02-28T04:15:15;12.70;;;8.00;;
6031;SDS011;3044;43.232;27.972;2023-02-28T04:17:42;7.50;;;6.80;;
6031;SDS011;3044;43.232;27.972;2023-02-28T04:20:10;8.27;;;7.50;;
6031;SDS011;3044;43.232;27.972;2023-02-28T04:22:37;8.87;;;8.00;;
6031;SDS011;3044;43.232;27.972;2023-02-28T04:25:07;9.50;;;7.30;;
6031;SDS011;3044;43.232;27.972;2023-02-28T04:27:34;7.77;;;6.97;;
6031;SDS011;3044;43.232;27.972;2023-02-28T04:30:01;11.27;;;7.63;;
6031;SDS011;3044;43.232;27.972;2023-02-28T04:32:29;7.80;;;7.10;;
6031;SDS011;3044;43.232;27.972;2023-02-28T04:34:56;9.90;;;8.77;;
6031;SDS011;3044;43.232;27.972;2023-02-28T04:37:23;9.10;;;8.10;;
6031;SDS011;3044;43.232;27.972;2023-02-28T04:39:53;9.67;;;8.67;;
6031;SDS011;3044;43.232;27.972;2023-02-28T04:42:22;10.07;;;9.00;;
6031;SDS011;3044;43.232;27.972;2023-02-28T04:44:49;10.00;;;9.00;;
6031;SDS011;3044;43.232;27.972;2023-02-28T04:47:16;11.00;;;8.70;;
6031;SDS011;3044;43.232;27.972;2023-02-28T04:49:43;10.70;;;9.13;;
6031;SDS011;3044;43.232;27.972;2023-02-28T04:52:10;13.00;;;10.43;;
6031;SDS011;3044;43.232;27.972;2023-02-28T04:54:38;10.40;;;9.40;;
6031;SDS011;3044;43.232;27.972;2023-02-28T04:57:05;15.90;;;10.43;;
6031;SDS011;3044;43.232;27.972;2023-02-28T04:59:34;13.90;;;10.20;;
6031;SDS011;3044;43.232;27.972;2023-02-28T05:02:01;12.63;;;10.27;;
6031;SDS011;3044;43.232;27.972;2023-02-28T05:04:31;14.23;;;11.53;;
6031;SDS011;3044;43.232;27.972;2023-02-28T05:06:59;16.40;;;12.00;;
6031;SDS011;3044;43.232;27.972;2023-02-28T05:09:27;19.13;;;13.73;;
6031;SDS011;3044;43.232;27.972;2023-02-28T05:11:54;23.37;;;13.53;;
6031;SDS011;3044;43.232;27.972;2023-02-28T05:14:22;19.10;;;14.10;;
6031;SDS011;3044;43.232;27.972;2023-02-28T05:16:50;20.83;;;12.87;;
6031;SDS011;3044;43.232;27.972;2023-02-28T05:19:18;21.00;;;13.53;;
6031;SDS011;3044;43.232;27.972;2023-02-28T05:21:49;18.77;;;14.43;;
6031;SDS011;3044;43.232;27.972;2023-02-28T05:24:18;19.60;;;13.60;;
6031;SDS011;3044;43.232;27.972;2023-02-28T05:26:49;22.30;;;15.03;;
6031;SDS011;3044;43.232;27.972;2023-02-28T05:29:18;19.47;;;14.47;;
6031;SDS011;3044;43.232;27.972;2023-02-28T05:31:45;20.73;;;15.43;;
6031;SDS011;3044;43.232;27.972;2023-02-28T05:34:14;24.13;;;15.87;;
6031;SDS011;3044;43.232;27.972;2023-02-28T05:36:42;19.43;;;13.87;;
6031;SDS011;3044;43.232;27.972;2023-02-28T05:39:09;18.80;;;13.87;;
6031;SDS011;3044;43.232;27.972;2023-02-28T05:41:38;21.20;;;15.77;;
6031;SDS011;3044;43.232;27.972;2023-02-28T05:44:07;23.00;;;15.57;;
6031;SDS011;3044;43.232;27.972;2023-02-28T05:46:34;25.53;;;16.47;;
6031;SDS011;3044;43.232;27.972;2023-02-28T05:49:02;27.53;;;17.07;;
6031;SDS011;3044;43.232;27.972;2023-02-28T05:51:31;26.80;;;15.67;;
6031;SDS011;3044;43.232;27.972;2023-02-28T05:53:59;24.70;;;16.73;;
6031;SDS011;3044;43.232;27.972;2023-02-28T05:56:27;22.33;;;15.77;;
6031;SDS011;3044;43.232;27.972;2023-02-28T05:58:54;25.27;;;16.07;;
6031;SDS011;3044;43.232;27.972;2023-02-28T06:01:23;31.77;;;17.80;;
6031;SDS011;3044;43.232;27.972;2023-02-28T06:03:56;24.50;;;17.00;;
6031;SDS011;3044;43.232;27.972;2023-02-28T06:06:25;27.63;;;18.27;;
6031;SDS011;3044;43.232;27.972;2023-02-28T06:08:53;28.13;;;20.00;;
6031;SDS011;3044;43.232;27.972;2023-02-28T06:11:21;29.40;;;20.17;;
6031;SDS011;3044;43.232;27.972;2023-02-28T06:13:53;27.60;;;18.83;;
6031;SDS011;3044;43.232;27.972;2023-02-28T06:16:21;26.90;;;18.60;;
6031;SDS011;3044;43.232;27.972;2023-02-28T06:18:48;29.40;;;19.37;;
6031;SDS011;3044;43.232;27.972;2023-02-28T06:21:15;30.73;;;20.23;;
6031;SDS011;3044;43.232;27.972;2023-02-28T06:23:43;27.47;;;18.13;;
6031;SDS011;3044;43.232;27.972;2023-02-28T06:26:11;30.53;;;18.40;;
6031;SDS011;3044;43.232;27.972;2023-02-28T06:28:38;26.27;;;15.90;;
6031;SDS011;3044;43.232;27.972;2023-02-28T06:31:06;32.50;;;18.97;;
6031;SDS011;3044;43.232;27.972;2023-02-28T06:33:34;30.40;;;17.13;;
6031;SDS011;3044;43.232;27.972;2023-02-28T06:36:02;25.87;;;17.30;;
6031;SDS011;3044;43.232;27.972;2023-02-28T06:38:29;26.63;;;17.87;;
6031;SDS011;3044;43.232;27.972;2023-02-28T06:40:57;25.43;;;17.83;;
6031;SDS011;3044;43.232;27.972;2023-02-28T06:43:27;23.60;;;16.23;;
6031;SDS011;3044;43.232;27.972;2023-02-28T06:45:56;23.23;;;16.43;;
6031;SDS011;3044;43.232;27.972;2023-02-28T06:48:25;27.50;;;17.57;;
6031;SDS011;3044;43.232;27.972;2023-02-28T06:51:00;27.10;;;18.03;;
6031;SDS011;3044;43.232;27.972;2023-02-28T06:53:28;25.97;;;18.13;;
6031;SDS011;3044;43.232;27.972;2023-02-28T06:55:55;33.90;;;20.87;;
6031;SDS011;3044;43.232;27.972;2023-02-28T06:58:22;32.53;;;18.97;;
6031;SDS011;3044;43.232;27.972;2023-02-28T07:00:51;25.50;;;17.50;;
6031;SDS011;3044;43.232;27.972;2023-02-28T07:03:19;78.70;;;47.10;;
6031;SDS011;3044;43.232;27.972;2023-02-28T07:05:46;53.40;;;34.77;;
6031;SDS011;3044;43.232;27.972;2023-02-28T07:08:13;29.47;;;18.70;;
6031;SDS011;3044;43.232;27.972;2023-02-28T07:10:40;25.70;;;17.43;;
6031;SDS011;3044;43.232;27.972;2023-02-28T07:13:08;36.07;;;22.53;;
6031;SDS011;3044;43.232;27.972;2023-02-28T07:15:36;34.63;;;22.40;;
6031;SDS011;3044;43.232;27.972;2023-02-28T07:18:05;56.47;;;37.80;;
6031;SDS011;3044;43.232;27.972;2023-02-28T07:20:32;29.83;;;20.00;;
6031;SDS011;3044;43.232;27.972;2023-02-28T07:22:59;21.50;;;16.40;;
6031;SDS011;3044;43.232;27.972;2023-02-28T07:25:27;21.63;;;15.93;;
6031;SDS011;3044;43.232;27.972;2023-02-28T07:27:55;25.13;;;18.37;;
6031;SDS011;3044;43.232;27.972;2023-02-28T07:30:24;22.50;;;15.53;;
6031;SDS011;3044;43.232;27.972;2023-02-28T07:32:51;20.43;;;15.77;;
6031;SDS011;3044;43.232;27.972;2023-02-28T07:35:21;31.00;;;21.00;;
6031;SDS011;3044;43.232;27.972;2023-02-28T07:37:48;15.00;;;10.70;;
6031;SDS011;3044;43.232;27.972;2023-02-28T07:40:16;35.43;;;20.07;;
6031;SDS011;3044;43.232;27.972;2023-02-28T07:42:44;15.57;;;10.83;;
6031;SDS011;3044;43.232;27.972;2023-02-28T07:45:11;30.33;;;12.77;;
6031;SDS011;3044;43.232;27.972;2023-02-28T07:47:38;18.13;;;12.63;;
6031;SDS011;3044;43.232;27.972;2023-02-28T07:50:05;13.50;;;10.90;;
6031;SDS011;3044;43.232;27.972;2023-02-28T07:52:35;14.63;;;10.00;;
6031;SDS011;3044;43.232;27.972;2023-02-28T07:55:03;17.03;;;10.23;;
6031;SDS011;3044;43.232;27.972;2023-02-28T07:57:30;12.70;;;9.30;;
6031;SDS011;3044;43.232;27.972;2023-02-28T07:59:58;17.77;;;13.60;;
6031;SDS011;3044;43.232;27.972;2023-02-28T08:02:25;15.00;;;9.90;;
6031;SDS011;3044;43.232;27.972;2023-02-28T08:04:52;15.33;;;11.07;;
6031;SDS011;3044;43.232;27.972;2023-02-28T08:07:20;14.77;;;10.40;;
6031;SDS011;3044;43.232;27.972;2023-02-28T08:09:48;16.13;;;12.03;;
6031;SDS011;3044;43.232;27.972;2023-02-28T08:12:15;16.10;;;10.40;;
6031;SDS011;3044;43.232;27.972;2023-02-28T08:14:42;15.23;;;11.10;;
6031;SDS011;3044;43.232;27.972;2023-02-28T08:17:10;12.87;;;11.40;;
6031;SDS011;3044;43.232;27.972;2023-02-28T08:19:37;9.73;;;8.73;;
6031;SDS011;3044;43.232;27.972;2023-02-28T08:22:05;16.70;;;12.20;;
6031;SDS011;3044;43.232;27.972;2023-02-28T08:24:32;12.07;;;10.00;;
6031;SDS011;3044;43.232;27.972;2023-02-28T08:27:01;9.93;;;8.93;;
6031;SDS011;3044;43.232;27.972;2023-02-28T08:29:28;12.97;;;10.40;;
6031;SDS011;3044;43.232;27.972;2023-02-28T08:31:55;12.83;;;10.80;;
6031;SDS011;3044;43.232;27.972;2023-02-28T08:34:23;14.90;;;10.27;;
6031;SDS011;3044;43.232;27.972;2023-02-28T08:36:51;13.17;;;9.47;;
6031;SDS011;3044;43.232;27.972;2023-02-28T08:39:18;17.77;;;10.10;;
6031;SDS011;3044;43.232;27.972;2023-02-28T08:41:45;11.30;;;10.10;;
6031;SDS011;3044;43.232;27.972;2023-02-28T08:44:13;15.73;;;11.47;;
6031;SDS011;3044;43.232;27.972;2023-02-28T08:46:40;11.20;;;10.03;;
6031;SDS011;3044;43.232;27.972;2023-02-28T08:49:09;13.23;;;8.90;;
6031;SDS011;3044;43.232;27.972;2023-02-28T08:51:37;13.90;;;10.10;;
6031;SDS011;3044;43.232;27.972;2023-02-28T08:54:05;10.50;;;7.60;;
6031;SDS011;3044;43.232;27.972;2023-02-28T08:56:32;10.50;;;8.27;;
6031;SDS011;3044;43.232;27.972;2023-02-28T08:58:59;9.60;;;8.50;;
6031;SDS011;3044;43.232;27.972;2023-02-28T09:01:28;13.23;;;8.20;;
6031;SDS011;3044;43.232;27.972;2023-02-28T09:03:56;10.03;;;7.90;;
6031;SDS011;3044;43.232;27.972;2023-02-28T09:06:24;13.80;;;8.80;;
6031;SDS011;3044;43.232;27.972;2023-02-28T09:08:52;10.57;;;9.10;;
6031;SDS011;3044;43.232;27.972;2023-02-28T09:11:23;15.93;;;13.57;;
6031;SDS011;3044;43.232;27.972;2023-02-28T09:13:50;14.17;;;10.17;;
6031;SDS011;3044;43.232;27.972;2023-02-28T09:16:18;20.60;;;13.20;;
6031;SDS011;3044;43.232;27.972;2023-02-28T09:18:46;36.07;;;20.50;;
6031;SDS011;3044;43.232;27.972;2023-02-28T09:21:15;72.73;;;40.87;;
6031;SDS011;3044;43.232;27.972;2023-02-28T09:23:44;58.20;;;26.87;;
6031;SDS011;3044;43.232;27.972;2023-02-28T09:26:13;12.53;;;9.60;;
6031;SDS011;3044;43.232;27.972;2023-02-28T09:28:41;11.30;;;9.10;;
6031;SDS011;3044;43.232;27.972;2023-02-28T09:31:10;14.30;;;11.50;;
6031;SDS011;3044;43.232;27.972;2023-02-28T09:33:40;13.60;;;11.17;;
6031;SDS011;3044;43.232;27.972;2023-02-28T09:36:08;14.33;;;11.10;;
6031;SDS011;3044;43.232;27.972;2023-02-28T09:38:36;10.27;;;8.80;;
6031;SDS011;3044;43.232;27.972;2023-02-28T09:41:03;10.83;;;9.10;;
6031;SDS011;3044;43.232;27.972;2023-02-28T09:43:38;15.13;;;9.60;;
6031;SDS011;3044;43.232;27.972;2023-02-28T09:46:12;11.40;;;8.57;;
6031;SDS011;3044;43.232;27.972;2023-02-28T09:48:49;11.73;;;8.63;;
6031;SDS011;3044;43.232;27.972;2023-02-28T09:51:26;11.37;;;8.47;;
6031;SDS011;3044;43.232;27.972;2023-02-28T09:54:00;12.80;;;8.77;;
6031;SDS011;3044;43.232;27.972;2023-02-28T09:56:30;11.70;;;9.40;;
6031;SDS011;3044;43.232;27.972;2023-02-28T09:59:02;10.43;;;8.60;;
6031;SDS011;3044;43.232;27.972;2023-02-28T10:01:37;11.23;;;8.50;;
6031;SDS011;3044;43.232;27.972;2023-02-28T10:04:12;8.67;;;7.83;;
6031;SDS011;3044;43.232;27.972;2023-02-28T10:06:53;11.13;;;8.17;;
6031;SDS011;3044;43.232;27.972;2023-02-28T10:09:21;15.80;;;9.57;;
6031;SDS011;3044;43.232;27.972;2023-02-28T10:11:52;10.43;;;8.70;;
6031;SDS011;3044;43.232;27.972;2023-02-28T10:14:23;8.40;;;6.70;;
6031;SDS011;3044;43.232;27.972;2023-02-28T10:16:55;10.37;;;7.30;;
6031;SDS011;3044;43.232;27.972;2023-02-28T10:19:25;8.07;;;7.33;;
6031;SDS011;3044;43.232;27.972;2023-02-28T10:22:01;11.10;;;7.17;;
6031;SDS011;3044;43.232;27.972;2023-02-28T10:24:32;8.53;;;7.60;;
6031;SDS011;3044;43.232;27.972;2023-02-28T10:27:05;9.10;;;6.90;;
6031;SDS011;3044;43.232;27.972;2023-02-28T10:29:41;8.60;;;7.30;;
6031;SDS011;3044;43.232;27.972;2023-02-28T10:32:11;8.53;;;6.97;;
6031;SDS011;3044;43.232;27.972;2023-02-28T10:34:42;9.30;;;7.10;;
6031;SDS011;3044;43.232;27.972;2023-02-28T10:37:10;11.50;;;7.70;;
6031;SDS011;3044;43.232;27.972;2023-02-28T10:39:41;9.47;;;7.80;;
6031;SDS011;3044;43.232;27.972;2023-02-28T10:42:21;10.03;;;7.97;;
6031;SDS011;3044;43.232;27.972;2023-02-28T10:47:41;9.43;;;7.50;;
6031;SDS011;3044;43.232;27.972;2023-02-28T10:50:27;10.20;;;9.20;;
6031;SDS011;3044;43.232;27.972;2023-02-28T10:53:05;12.70;;;8.80;;
6031;SDS011;3044;43.232;27.972;2023-02-28T10:55:42;16.83;;;9.30;;
6031;SDS011;3044;43.232;27.972;2023-02-28T10:58:21;10.73;;;8.70;;
6031;SDS011;3044;43.232;27.972;2023-02-28T11:00:49;11.23;;;9.17;;
6031;SDS011;3044;43.232;27.972;2023-02-28T11:03:23;14.23;;;8.83;;
6031;SDS011;3044;43.232;27.972;2023-02-28T11:05:55;11.30;;;8.90;;
6031;SDS011;3044;43.232;27.972;2023-02-28T11:08:24;9.50;;;8.60;;
6031;SDS011;3044;43.232;27.972;2023-02-28T11:10:54;9.60;;;8.33;;
6031;SDS011;3044;43.232;27.972;2023-02-28T11:13:25;9.90;;;7.83;;
6031;SDS011;3044;43.232;27.972;2023-02-28T11:15:55;10.70;;;9.60;;
6031;SDS011;3044;43.232;27.972;2023-02-28T11:18:27;37.40;;;21.30;;
6031;SDS011;3044;43.232;27.972;2023-02-28T11:20:57;32.43;;;15.23;;
6031;SDS011;3044;43.232;27.972;2023-02-28T11:23:29;35.60;;;21.40;;
6031;SDS011;3044;43.232;27.972;2023-02-28T11:26:00;24.13;;;13.87;;
6031;SDS011;3044;43.232;27.972;2023-02-28T11:28:30;23.50;;;14.00;;
6031;SDS011;3044;43.232;27.972;2023-02-28T11:31:03;10.33;;;9.03;;
6031;SDS011;3044;43.232;27.972;2023-02-28T11:33:37;46.67;;;29.30;;
6031;SDS011;3044;43.232;27.972;2023-02-28T11:36:10;9.43;;;8.53;;
6031;SDS011;3044;43.232;27.972;2023-02-28T11:38:41;9.70;;;8.80;;
6031;SDS011;3044;43.232;27.972;2023-02-28T11:41:13;12.73;;;10.37;;
6031;SDS011;3044;43.232;27.972;2023-02-28T11:44:04;13.80;;;8.03;;
6031;SDS011;3044;43.232;27.972;2023-02-28T11:46:39;17.53;;;10.30;;
6031;SDS011;3044;43.232;27.972;2023-02-28T11:49:15;9.43;;;8.40;;
6031;SDS011;3044;43.232;27.972;2023-02-28T11:51:58;11.90;;;9.87;;
6031;SDS011;3044;43.232;27.972;2023-02-28T11:54:35;15.93;;;9.53;;
6031;SDS011;3044;43.232;27.972;2023-02-28T11:57:31;11.03;;;9.67;;
6031;SDS011;3044;43.232;27.972;2023-02-28T12:00:08;11.87;;;9.10;;
6031;SDS011;3044;43.232;27.972;2023-02-28T12:02:56;9.83;;;8.80;;
6031;SDS011;3044;43.232;27.972;2023-02-28T12:05:36;12.57;;;9.70;;
6031;SDS011;3044;43.232;27.972;2023-02-28T12:08:15;16.57;;;10.20;;
6031;SDS011;3044;43.232;27.972;2023-02-28T12:10:57;15.43;;;9.97;;
6031;SDS011;3044;43.232;27.972;2023-02-28T12:13:34;12.67;;;9.60;;
6031;SDS011;3044;43.232;27.972;2023-02-28T12:16:20;13.47;;;8.60;;
6031;SDS011;3044;43.232;27.972;2023-02-28T12:19:12;11.37;;;9.20;;
6031;SDS011;3044;43.232;27.972;2023-02-28T12:21:48;15.83;;;10.87;;
6031;SDS011;3044;43.232;27.972;2023-02-28T12:24:28;19.27;;;13.87;;
6031;SDS011;3044;43.232;27.972;2023-02-28T12:27:17;39.50;;;24.13;;
6031;SDS011;3044;43.232;27.972;2023-02-28T12:29:49;19.00;;;14.30;;
6031;SDS011;3044;43.232;27.972;2023-02-28T12:32:21;11.60;;;10.13;;
6031;SDS011;3044;43.232;27.972;2023-02-28T12:34:55;14.30;;;10.60;;
6031;SDS011;3044;43.232;27.972;2023-02-28T12:37:26;13.30;;;10.97;;
6031;SDS011;3044;43.232;27.972;2023-02-28T12:40:00;12.20;;;10.37;;
6031;SDS011;3044;43.232;27.972;2023-02-28T12:42:33;13.37;;;11.20;;
6031;SDS011;3044;43.232;27.972;2023-02-28T12:45:06;15.53;;;10.90;;
6031;SDS011;3044;43.232;27.972;2023-02-28T12:47:40;15.00;;;11.67;;
6031;SDS011;3044;43.232;27.972;2023-02-28T12:50:11;16.33;;;10.47;;
6031;SDS011;3044;43.232;27.972;2023-02-28T12:52:40;13.70;;;11.33;;
6031;SDS011;3044;43.232;27.972;2023-02-28T12:55:15;12.33;;;10.30;;
6031;SDS011;3044;43.232;27.972;2023-02-28T12:57:55;12.70;;;10.97;;
6031;SDS011;3044;43.232;27.972;2023-02-28T13:00:33;15.00;;;12.10;;
6031;SDS011;3044;43.232;27.972;2023-02-28T13:03:16;18.00;;;11.63;;
6031;SDS011;3044;43.232;27.972;2023-02-28T13:06:05;13.63;;;10.83;;
6031;SDS011;3044;43.232;27.972;2023-02-28T13:08:59;22.17;;;13.10;;
6031;SDS011;3044;43.232;27.972;2023-02-28T13:11:31;14.37;;;11.37;;
6031;SDS011;3044;43.232;27.972;2023-02-28T13:14:16;18.83;;;12.43;;
6031;SDS011;3044;43.232;27.972;2023-02-28T13:16:51;16.73;;;11.37;;
6031;SDS011;3044;43.232;27.972;2023-02-28T13:19:24;17.27;;;13.10;;
6031;SDS011;3044;43.232;27.972;2023-02-28T13:21:53;17.37;;;12.97;;
6031;SDS011;3044;43.232;27.972;2023-02-28T13:24:38;16.57;;;12.30;;
6031;SDS011;3044;43.232;27.972;2023-02-28T13:30:02;16.60;;;11.17;;
6031;SDS011;3044;43.232;27.972;2023-02-28T13:33:27;19.43;;;12.33;;
6031;SDS011;3044;43.232;27.972;2023-02-28T13:36:08;20.23;;;12.77;;
6031;SDS011;3044;43.232;27.972;2023-02-28T13:38:49;21.23;;;13.33;;
6031;SDS011;3044;43.232;27.972;2023-02-28T13:44:18;20.70;;;13.63;;
6031;SDS011;3044;43.232;27.972;2023-02-28T13:49:51;18.10;;;12.90;;
6031;SDS011;3044;43.232;27.972;2023-02-28T13:52:20;23.13;;;14.93;;
6031;SDS011;3044;43.232;27.972;2023-02-28T13:54:58;26.43;;;18.10;;
6031;SDS011;3044;43.232;27.972;2023-02-28T13:57:46;27.60;;;16.87;;
6031;SDS011;3044;43.232;27.972;2023-02-28T14:00:28;28.67;;;20.40;;
6031;SDS011;3044;43.232;27.972;2023-02-28T14:03:10;20.00;;;14.30;;
6031;SDS011;3044;43.232;27.972;2023-02-28T14:08:45;19.97;;;13.57;;
6031;SDS011;3044;43.232;27.972;2023-02-28T14:11:30;18.60;;;13.40;;
6031;SDS011;3044;43.232;27.972;2023-02-28T14:13:58;20.93;;;13.10;;
6031;SDS011;3044;43.232;27.972;2023-02-28T14:16:27;22.23;;;12.47;;
6031;SDS011;3044;43.232;27.972;2023-02-28T14:19:03;20.07;;;13.00;;
6031;SDS011;3044;43.232;27.972;2023-02-28T14:21:42;31.80;;;13.30;;
6031;SDS011;3044;43.232;27.972;2023-02-28T14:24:23;17.83;;;11.93;;
6031;SDS011;3044;43.232;27.972;2023-02-28T14:27:07;19.43;;;12.87;;
6031;SDS011;3044;43.232;27.972;2023-02-28T14:32:47;20.10;;;13.07;;
6031;SDS011;3044;43.232;27.972;2023-02-28T14:35:25;21.57;;;14.37;;
6031;SDS011;3044;43.232;27.972;2023-02-28T14:38:08;15.47;;;12.57;;
6031;SDS011;3044;43.232;27.972;2023-02-28T14:40:44;16.30;;;11.33;;
6031;SDS011;3044;43.232;27.972;2023-02-28T14:43:19;20.40;;;12.90;;
6031;SDS011;3044;43.232;27.972;2023-02-28T14:45:49;22.80;;;13.00;;
6031;SDS011;3044;43.232;27.972;2023-02-28T14:48:18;23.80;;;13.70;;
6031;SDS011;3044;43.232;27.972;2023-02-28T14:50:48;27.77;;;12.93;;
6031;SDS011;3044;43.232;27.972;2023-02-28T14:53:20;18.97;;;13.10;;
6031;SDS011;3044;43.232;27.972;2023-02-28T14:55:49;20.20;;;13.20;;
6031;SDS011;3044;43.232;27.972;2023-02-28T14:58:22;19.20;;;12.60;;
6031;SDS011;3044;43.232;27.972;2023-02-28T15:00:50;18.17;;;12.40;;
6031;SDS011;3044;43.232;27.972;2023-02-28T15:03:20;19.20;;;13.00;;
6031;SDS011;3044;43.232;27.972;2023-02-28T15:05:52;15.50;;;11.50;;
6031;SDS011;3044;43.232;27.972;2023-02-28T15:08:22;23.57;;;13.27;;
6031;SDS011;3044;43.232;27.972;2023-02-28T15:10:51;20.60;;;13.10;;
6031;SDS011;3044;43.232;27.972;2023-02-28T15:13:20;26.67;;;13.30;;
6031;SDS011;3044;43.232;27.972;2023-02-28T15:15:50;23.37;;;14.27;;
6031;SDS011;3044;43.232;27.972;2023-02-28T15:18:25;16.77;;;13.30;;
6031;SDS011;3044;43.232;27.972;2023-02-28T15:20:57;22.93;;;12.90;;
6031;SDS011;3044;43.232;27.972;2023-02-28T15:23:29;21.13;;;13.40;;
6031;SDS011;3044;43.232;27.972;2023-02-28T15:25:57;22.60;;;13.70;;
6031;SDS011;3044;43.232;27.972;2023-02-28T15:28:25;21.10;;;13.33;;
6031;SDS011;3044;43.232;27.972;2023-02-28T15:30:55;28.37;;;14.20;;
6031;SDS011;3044;43.232;27.972;2023-02-28T15:33:24;25.37;;;13.93;;